RLSO2: Arkansas River, Ralston, OK

                                SHEF ID:       RLSO2     Arkansas River at Ralston, OK
STATION TYPE:
Regulating: Stage = 16.00, Flow = 70270

PRECIP STAGE STAGE(2) RIV-FLOW AIR-TEMP BAT-LOAD
in ft ft cfs F volt
Ccp-Rev Ccp-Rev Ccp-Rev Ccp-Rev Ccp-Rev Ccp-Rev
(America/Chicago)
08/31 00:00 0.00 3.88 3.96 765 84.20 12.67
08/31 01:00 0.00 3.93 4.01 814 82.22 12.66
08/31 02:00 0.00 3.98 4.06 866 80.42 12.63
08/31 03:00 0.00 4.03 4.11 919 78.44 12.63
08/31 04:00 0.00 4.08 4.15 975 77.18 12.61
08/31 05:00 0.00 4.10 4.17 998 76.46 12.60
08/31 06:00 0.00 4.15 4.19 1057 75.74 12.59
08/31 07:00 0.00 4.16 4.19 1069 74.30 12.58
08/31 08:00 0.00 4.16 4.19 1069 79.52 12.58
08/31 09:00 0.00 4.15 4.15 1057 83.66 12.70
08/31 10:00 0.00 4.10 4.12 998 90.50 13.08
08/31 11:00 0.00 4.02 4.08 909 94.82 13.17
08/31 12:00 0.00 4.01 4.04 898 97.52 13.25
08/31 13:00 0.00 3.96 4.00 845 99.14 13.17
08/31 14:00 0.00 3.96 3.97 845 99.32 13.03
08/31 15:00 0.00 3.90 3.94 784 100.22 13.02
08/31 16:00 0.00 3.87 3.89 755 101.12 12.94
08/31 17:00 0.00 3.82 3.85 708 101.12 12.84
08/31 18:00 0.00 3.79 3.83 680 100.40 12.79
08/31 19:00 0.00 3.75 3.80 645 97.70 12.77
08/31 20:00 0.00 3.76 3.81 654 93.20 12.77
08/31 21:00 0.00 3.78 3.81 671 89.60 12.75
08/31 22:00 0.00 3.78 3.83 671 86.54 12.73
08/31 23:00 0.00 3.80 3.85 689 85.28 12.71
Data processed at Tue 01Sep2026 04:21 GMT

NOTICE: If you are parsing this page

Please convert to using our Data API. Starting early 2026 we will be migrating to: https://water.usace.army.mil with modern pages rendered in JavaScript. When this migration completes you will no longer be able to scrape this page! CWMSDataAPI (CDA)

Timeseries IDs (TSIDs)

TSIDs used from left to right in the data table
RALS.Precip-Inc.Total.1Hour.1Hour.Ccp-Rev
RALS.Stage.Inst.1Hour.0.Ccp-Rev
RALS.Stage-Alt.Inst.1Hour.0.Ccp-Rev
RALS.Flow.Inst.1Hour.0.Ccp-Rev
RALS.Temp-Air.Inst.1Hour.0.Ccp-Rev
RALS.Volt-Battery Load.Inst.1Hour.0.Ccp-Rev

                            

All information presented herein is the property of the government of the United States of America and may be revised or deleted at any time without prior notice. Dissemination of this information without the expressed written consent of the Public Affairs Office, Tulsa District U.S. Army Corps of Engineers is strictly prohibited. These data are gathered electronically and, as presented, have NOT undergone any form of quality control. These data are NOT guaranteed to be valid or correct.